Ms Folla 2 — LLPD — position and weather

sailwx.info

Track history (hours):
 
Tides and Currents Weather Stations Pressure Air Temp Water Temp Dewpoint Dewpoint Depression Visibility Wind Speed Wind Dir Waves Ship Positions

Ms Folla 2

Last reported at 2017-Jun-24 22:30 UTC. Time now 2017-Jun-24 22:33 UTC.
Position N 68°12' E 014°31'.

Length 52 m; draft 5.5 m.

Type: Ship. MMSI: 258253000.

Date/timePositionNaut miles runAvg speedWind from/ knotsBaromVisibWave heightAir tempDewpointWater temp
2017-Jun-24 22:30N 68°12' E 014°31'510.9
2017-Jun-24 22:00N 68°10' E 014°18'510.9
2017-Jun-24 21:30N 68°07' E 014°05'510.6
2017-Jun-24 21:00N 68°05' E 013°52'510.6
2017-Jun-24 20:30N 68°04' E 013°38'4 8.2
2017-Jun-24 20:00N 68°08' E 013°37'0 0.0
2017-Jun-24 19:30N 68°08' E 013°37'1 1.9
2017-Jun-24 19:00N 68°08' E 013°34'4 7.2
2017-Jun-24 18:30N 68°04' E 013°36'511.0
2017-Jun-24 18:00N 67°59' E 013°43'611.2
2017-Jun-24 17:30N 67°54' E 013°49'510.9
2017-Jun-24 17:00N 67°49' E 013°56'611.0
2017-Jun-24 16:30N 67°44' E 014°02'611.3
2017-Jun-24 16:00N 67°39' E 014°09'511.1
2017-Jun-24 15:30N 67°34' E 014°15'611.3
2017-Jun-24 15:00N 67°29' E 014°22'1110.6
2017-Jun-24 14:00N 67°19' E 014°23'1 2.4
2017-Jun-24 13:30N 67°18' E 014°24'2 3.4
2017-Jun-24 13:00N 67°16' E 014°21'0 0.0
2017-Jun-24 12:30N 67°16' E 014°21'5 9.6
2017-Jun-24 12:00N 67°14' E 014°10'611.2
2017-Jun-24 11:30N 67°12' E 013°57'5 9.1
2017-Jun-24 11:00N 67°10' E 013°46'1 2.0
2017-Jun-24 10:31N 67°09' E 013°46'5 9.8
2017-Jun-24 10:00N 67°06' E 013°56'511.0
2017-Jun-24 09:30N 67°02' E 013°47'610.9
2017-Jun-24 09:00N 66°59' E 013°35'5 9.5
2017-Jun-24 08:30N 66°54' E 013°31'5 9.8
2017-Jun-24 08:00N 66°49' E 013°33'3 5.6
2017-Jun-24 07:30N 66°48' E 013°27'510.3
2017-Jun-24 07:00N 66°45' E 013°15'3 6.1
2017-Jun-24 06:30N 66°43' E 013°17'0 0.2
2017-Jun-24 06:00N 66°43' E 013°17'0 0.0
2017-Jun-24 05:30N 66°43' E 013°17'3 5.4
2017-Jun-24 05:00N 66°41' E 013°11'510.7
2017-Jun-24 04:30N 66°36' E 013°05'5 8.9
2017-Jun-24 04:00N 66°32' E 012°59'5 9.4
2017-Jun-24 03:30N 66°29' E 012°50'510.7
2017-Jun-24 03:00N 66°24' E 012°46'2 3.3
2017-Jun-24 02:30N 66°24' E 012°50'5 9.7
2017-Jun-24 02:00N 66°23' E 012°38'1 2.6
2017-Jun-24 01:30N 66°22' E 012°35'2 4.2
2017-Jun-24 01:00N 66°23' E 012°41'510.4
2017-Jun-24 00:30N 66°18' E 012°40'611.6
2017-Jun-24 00:00N 66°12' E 012°40'611.6
2017-Jun-23 23:30N 66°06' E 012°40'5 9.2
2017-Jun-23 23:00N 66°01' E 012°39'5 9.1
2017-Jun-23 22:30N 65°59' E 012°29'611.4
2017-Jun-23 22:00N 65°54' E 012°22'611.3
2017-Jun-23 21:30N 65°48' E 012°21'5 9.5
2017-Jun-23 21:00N 65°44' E 012°23'3 5.3
2017-Jun-23 20:30N 65°41' E 012°25'611.1
2017-Jun-23 19:59N 65°36' E 012°18'511.0
2017-Jun-23 19:30N 65°31' E 012°12'4 8.0
2017-Jun-23 19:00N 65°27' E 012°11'511.0
2017-Jun-23 18:30N 65°23' E 012°05'611.2
2017-Jun-23 18:00N 65°18' E 011°59'510.9
2017-Jun-23 17:30N 65°13' E 011°53'510.7
2017-Jun-23 17:00N 65°08' E 011°49'611.2
2017-Jun-23 16:30N 65°03' E 011°43'510.3
2017-Jun-23 16:00N 64°59' E 011°35'510.7
2017-Jun-23 15:30N 64°56' E 011°25'510.5
2017-Jun-23 15:00N 64°52' E 011°16'8 8.1
2017-Jun-23 14:00N 64°45' E 011°06'510.7
2017-Jun-23 13:30N 64°40' E 011°08'510.4
2017-Jun-23 13:00N 64°36' E 011°17'510.9
2017-Jun-23 12:30N 64°32' E 011°26'5 9.7
2017-Jun-23 12:00N 64°27' E 011°26'2 3.8
2017-Jun-23 11:30N 64°28' E 011°30'0 0.0
2017-Jun-23 11:00N 64°28' E 011°30'0 0.0
2017-Jun-23 10:29N 64°28' E 011°30'0 0.0
2017-Jun-23 10:00N 64°28' E 011°30'0 0.0
2017-Jun-23 09:30N 64°28' E 011°30'0 0.0
2017-Jun-23 09:00N 64°28' E 011°30'0 0.0
2017-Jun-23 08:30N 64°28' E 011°30'0 0.0
2017-Jun-23 08:00N 64°28' E 011°30'0 0.0
2017-Jun-23 07:30N 64°28' E 011°30'0 0.0
2017-Jun-23 07:00N 64°28' E 011°30'0 0.0
2017-Jun-23 06:30N 64°28' E 011°30'0 0.0
2017-Jun-23 06:00N 64°28' E 011°30'0 0.0
2017-Jun-23 05:30N 64°28' E 011°30'0 0.0
2017-Jun-23 05:00N 64°28' E 011°30'0 0.0
2017-Jun-23 04:29N 64°28' E 011°30'1 1.6
2017-Jun-23 04:00N 64°27' E 011°29'510.1
2017-Jun-23 03:30N 64°29' E 011°18'510.0
2017-Jun-23 03:00N 64°32' E 011°08'510.0
2017-Jun-23 02:30N 64°36' E 011°01'5 9.8
2017-Jun-23 02:00N 64°37' E 010°50'510.8
2017-Jun-23 01:30N 64°34' E 010°40'611.1
2017-Jun-23 01:00N 64°29' E 010°32'510.6
2017-Jun-23 00:30N 64°25' E 010°26'611.3
2017-Jun-23 00:00N 64°20' E 010°21'610.5
2017-Jun-22 23:29N 64°14' E 010°16'511.2
2017-Jun-22 23:01N 64°10' E 010°09'611.2
2017-Jun-22 22:30N 64°06' E 010°01'5 9.2
2017-Jun-22 22:00N 64°01' E 009°60'610.9
2017-Jun-22 21:30N 63°57' E 009°51'611.1
2017-Jun-22 20:59N 63°53' E 009°43'511.2
2017-Jun-22 20:30N 63°49' E 009°35'611.2
2017-Jun-22 20:00N 63°43' E 009°32'510.4
2017-Jun-22 19:30N 63°38' E 009°29'510.3
2017-Jun-22 19:00N 63°39' E 009°41'5 9.5
2017-Jun-22 18:30N 63°36' E 009°49'612.0
2017-Jun-22 18:00N 63°30' E 009°55'612.0
2017-Jun-22 17:30N 63°29' E 010°08'611.7
2017-Jun-22 17:00N 63°28' E 010°21'3 5.0
2017-Jun-22 16:30N 63°27' E 010°25'0 0.0
2017-Jun-22 16:00N 63°27' E 010°25'0 0.0
2017-Jun-22 15:31N 63°27' E 010°25'0 0.0
2017-Jun-22 15:00N 63°27' E 010°25'0 0.0
2017-Jun-22 14:30N 63°27' E 010°25'4 3.9
2017-Jun-22 13:30N 63°28' E 010°17'611.2
2017-Jun-22 13:00N 63°28' E 010°05'5 9.9
2017-Jun-22 12:30N 63°30' E 009°54'510.1
2017-Jun-22 12:00N 63°35' E 009°49'5 9.6
2017-Jun-22 11:30N 63°39' E 009°44'510.8
2017-Jun-22 11:00N 63°38' E 009°32'4 8.2
2017-Jun-22 10:30N 63°42' E 009°30'611.5
2017-Jun-22 10:00N 63°47' E 009°34'611.3
2017-Jun-22 09:30N 63°52' E 009°41'610.8
2017-Jun-22 08:59N 63°57' E 009°47'511.1
2017-Jun-22 08:30N 64°02' E 009°48'611.3
2017-Jun-22 08:00N 64°06' E 009°58'611.2
2017-Jun-22 07:30N 64°10' E 010°07'611.4
2017-Jun-22 07:00N 64°14' E 010°15'510.3
2017-Jun-22 06:30N 64°19' E 010°20'611.2
2017-Jun-22 06:00N 64°24' E 010°26'510.5
2017-Jun-22 05:30N 64°29' E 010°31'611.3
2017-Jun-22 05:00N 64°33' E 010°39'5 9.7
2017-Jun-22 04:30N 64°33' E 010°50'1 2.5
2017-Jun-22 04:00N 64°32' E 010°52'0 0.0
2017-Jun-22 03:30N 64°32' E 010°52'0 0.0
2017-Jun-22 03:00N 64°32' E 010°52'0 0.0
2017-Jun-22 02:30N 64°32' E 010°52'0 0.0
2017-Jun-22 02:00N 64°32' E 010°52'4 8.9
2017-Jun-22 01:30N 64°37' E 010°51'510.6
2017-Jun-22 01:00N 64°42' E 010°55'611.1
2017-Jun-22 00:30N 64°46' E 011°03'611.3
2017-Jun-22 00:00N 64°50' E 011°12'2 3.5
2017-Jun-21 23:30N 64°52' E 011°15'1 1.9
2017-Jun-21 23:00N 64°51' E 011°17'0 0.0
2017-Jun-21 22:30N 64°51' E 011°17'0 0.0
2017-Jun-21 22:00N 64°51' E 011°17'0 0.0
2017-Jun-21 21:30N 64°51' E 011°17'0 0.0
2017-Jun-21 21:00N 64°51' E 011°17'0 0.0
2017-Jun-21 20:30N 64°51' E 011°17'2 4.9
2017-Jun-21 20:00N 64°54' E 011°20'510.3
2017-Jun-21 19:30N 64°57' E 011°29'510.7
2017-Jun-21 19:00N 65°00' E 011°38'510.0
2017-Jun-21 18:30N 65°04' E 011°46'510.9
2017-Jun-21 18:00N 65°10' E 011°50'610.9
2017-Jun-21 17:30N 65°15' E 011°55'510.6
2017-Jun-21 17:00N 65°19' E 012°01'511.1
2017-Jun-21 16:30N 65°24' E 012°07'5 9.8
2017-Jun-21 15:59N 65°29' E 012°13'510.7
2017-Jun-21 15:30N 65°34' E 012°14'611.1
2017-Jun-21 15:00N 65°39' E 012°16'1211.6
2017-Jun-21 14:00N 65°51' E 012°22'611.2
2017-Jun-21 13:29N 65°56' E 012°24'5 4.6
2017-Jun-21 12:27N 66°00' E 012°18'4 8.1
2017-Jun-21 11:58N 65°58' E 012°10'1 2.4
2017-Jun-21 11:23N 65°58' E 012°06'410.7
2017-Jun-21 11:00N 66°02' E 012°08'3 5.7
2017-Jun-21 10:30N 66°05' E 012°12'2 3.5
2017-Jun-21 09:59N 66°06' E 012°15'510.1
2017-Jun-21 09:30N 66°09' E 012°25'510.3
2017-Jun-21 09:00N 66°14' E 012°30'510.2
2017-Jun-21 08:29N 66°18' E 012°39'510.5
2017-Jun-21 08:01N 66°22' E 012°42'3 6.4
2017-Jun-21 07:30N 66°23' E 012°34'0 0.0
2017-Jun-21 07:00N 66°23' E 012°34'0 0.1
2017-Jun-21 06:31N 66°23' E 012°34'4 8.9
2017-Jun-21 06:00N 66°26' E 012°41'610.6
2017-Jun-21 05:29N 66°30' E 012°50'710.6
2017-Jun-21 04:52N 66°34' E 013°04'510.6
2017-Jun-21 04:26N 66°38' E 013°06'510.6
2017-Jun-21 03:59N 66°43' E 013°10'13 4.4
2017-Jun-21 01:10N 66°51' E 013°34'311.0
2017-Jun-21 00:56N 66°54' E 013°32'4 9.8
2017-Jun-21 00:30N 66°58' E 013°30'510.9
2017-Jun-21 00:00N 67°01' E 013°42'510.8
2017-Jun-20 23:30N 67°04' E 013°53'1 2.4
2017-Jun-20 23:00N 67°05' E 013°51'0 0.0
2017-Jun-20 22:30N 67°05' E 013°51'0 0.1
2017-Jun-20 22:00N 67°05' E 013°51'3 6.3
2017-Jun-20 21:30N 67°08' E 013°53'510.8
2017-Jun-20 21:00N 67°13' E 013°51'510.6
2017-Jun-20 20:30N 67°18' E 013°49'610.7
2017-Jun-20 19:59N 67°24' E 013°47'41 6.2
2017-Jun-20 13:27N 68°04' E 013°36'810.3
2017-Jun-20 12:38N 68°05' E 013°59'4010.4
2017-Jun-20 08:44N 68°18' E 015°42'35 9.7
2017-Jun-20 05:08N 68°44' E 016°45'210.7
2017-Jun-20 04:58N 68°46' E 016°48'2310.3
2017-Jun-20 02:46N 69°05' E 017°23'310.8
2017-Jun-20 02:30N 69°06' E 017°30'510.7
2017-Jun-20 02:00N 69°08' E 017°44'510.6
2017-Jun-20 01:30N 69°10' E 017°57'4 8.8
2017-Jun-20 01:00N 69°15' E 017°58'10310.1
2017-Jun-19 14:45N 70°24' E 021°41'310.6
2017-Jun-19 14:30N 70°23' E 021°49'1111.0
2017-Jun-19 13:30N 70°17' E 022°17'3 6.6
2017-Jun-19 13:00N 70°14' E 022°21'0 0.0
2017-Jun-19 12:30N 70°14' E 022°21'0 0.0
2017-Jun-19 12:00N 70°14' E 022°21'0 0.0
2017-Jun-19 11:30N 70°14' E 022°21'0 0.0
2017-Jun-19 11:00N 70°14' E 022°21'0 0.0
2017-Jun-19 10:30N 70°14' E 022°21'0 0.0
2017-Jun-19 10:00N 70°14' E 022°21'0 0.0
2017-Jun-19 09:30N 70°14' E 022°21'0 0.0
2017-Jun-19 09:00N 70°14' E 022°21'0 0.0
2017-Jun-19 08:30N 70°14' E 022°21'0 0.0
2017-Jun-19 08:00N 70°14' E 022°21'0 0.0
2017-Jun-19 07:30N 70°14' E 022°21'0 0.0
2017-Jun-19 07:00N 70°14' E 022°21'0 0.0
2017-Jun-19 06:30N 70°14' E 022°21'0 0.0
2017-Jun-19 06:00N 70°14' E 022°21'0 0.0
2017-Jun-19 05:30N 70°14' E 022°21'4 9.0
2017-Jun-19 05:00N 70°18' E 022°13'612.0
2017-Jun-19 04:30N 70°21' E 021°58'611.8
2017-Jun-19 04:00N 70°24' E 021°43'612.1
2017-Jun-19 03:30N 70°20' E 021°29'612.1
2017-Jun-19 03:00N 70°16' E 021°16'611.9
2017-Jun-19 02:30N 70°11' E 021°05'611.8
2017-Jun-19 01:59N 70°06' E 020°56'611.7
2017-Jun-19 01:30N 70°02' E 020°43'611.8
2017-Jun-19 01:00N 70°00' E 020°27'612.1
2017-Jun-19 00:30N 69°58' E 020°11'612.1
2017-Jun-19 00:00N 69°54' E 019°56'612.0
2017-Jun-18 23:30N 69°51' E 019°43'612.0
2017-Jun-18 22:59N 69°48' E 019°26'611.9
2017-Jun-18 22:30N 69°46' E 019°11'611.8
2017-Jun-18 22:00N 69°41' E 019°01'1 1.6
2017-Jun-18 21:29N 69°41' E 018°59'0 0.4
2017-Jun-18 21:00N 69°41' E 018°59'3 7.1
2017-Jun-18 20:30N 69°37' E 018°56'611.5
2017-Jun-18 20:00N 69°33' E 018°44'611.5
2017-Jun-18 19:30N 69°31' E 018°28'611.7
2017-Jun-18 19:00N 69°29' E 018°13'610.9
2017-Jun-18 18:30N 69°24' E 018°06'611.2
2017-Jun-18 18:00N 69°19' E 017°60'5 9.9
2017-Jun-18 17:30N 69°14' E 017°58'0 0.0
2017-Jun-18 17:01N 69°14' E 017°58'1 1.1
2017-Jun-18 16:31N 69°14' E 017°58'3 5.1
2017-Jun-18 16:00N 69°11' E 018°01'611.7
2017-Jun-18 15:30N 69°08' E 017°47'611.4
2017-Jun-18 15:00N 69°05' E 017°35'1211.5
2017-Jun-18 14:00N 68°53' E 017°27'1 1.5
2017-Jun-18 13:30N 68°54' E 017°29'0 0.1
2017-Jun-18 13:00N 68°54' E 017°29'5 9.7
2017-Jun-18 12:30N 68°54' E 017°42'1 2.1
2017-Jun-18 11:59N 68°54' E 017°39'611.7
2017-Jun-18 11:30N 68°51' E 017°27'611.4
2017-Jun-18 11:00N 68°47' E 017°15'611.4
2017-Jun-18 10:29N 68°44' E 017°01'611.2
2017-Jun-18 10:00N 68°43' E 016°46'0 0.7
2017-Jun-18 09:30N 68°43' E 016°46'2 4.2
2017-Jun-18 09:00N 68°45' E 016°42'3 6.3
2017-Jun-18 08:30N 68°47' E 016°36'1 2.5
2017-Jun-18 08:00N 68°48' E 016°33'0 0.0
2017-Jun-18 07:30N 68°48' E 016°33'0 0.0
2017-Jun-18 07:00N 68°48' E 016°33'0 0.5
2017-Jun-18 06:30N 68°48' E 016°33'5 9.3
2017-Jun-18 06:00N 68°52' E 016°39'0 0.9
2017-Jun-18 05:30N 68°52' E 016°40'0 0.0
2017-Jun-18 05:00N 68°52' E 016°40'2 4.2
2017-Jun-18 04:30N 68°52' E 016°35'4 7.9
2017-Jun-18 04:00N 68°53' E 016°24'4 7.6
2017-Jun-18 03:30N 68°55' E 016°15'5 9.4
2017-Jun-18 03:00N 68°51' E 016°07'4 8.4
2017-Jun-18 02:30N 68°47' E 016°08'1 1.9
2017-Jun-18 02:00N 68°46' E 016°10'3 6.2
2017-Jun-18 01:30N 68°49' E 016°05'5 9.8
2017-Jun-18 01:00N 68°53' E 016°01'510.0
2017-Jun-18 00:30N 68°58' E 015°56'5 9.1
2017-Jun-18 00:00N 68°59' E 015°43'2 3.7
2017-Jun-17 23:30N 68°58' E 015°38'4 8.2
2017-Jun-17 23:00N 68°54' E 015°34'511.1
2017-Jun-17 22:30N 68°49' E 015°27'611.2
2017-Jun-17 22:00N 68°44' E 015°26'2 3.7
2017-Jun-17 21:30N 68°42' E 015°25'0 0.0
2017-Jun-17 21:00N 68°42' E 015°25'0 0.1
2017-Jun-17 20:30N 68°42' E 015°25'5 9.4
2017-Jun-17 20:00N 68°38' E 015°19'611.4
2017-Jun-17 19:29N 68°33' E 015°10'510.6
2017-Jun-17 19:00N 68°28' E 015°12'612.0
2017-Jun-17 18:30N 68°23' E 015°04'611.4
2017-Jun-17 18:00N 68°17' E 014°58'510.3
2017-Jun-17 17:30N 68°13' E 014°50'510.7
2017-Jun-17 16:59N 68°13' E 014°35'1 1.7
2017-Jun-17 16:30N 68°14' E 014°35'1 1.8
2017-Jun-17 16:00N 68°13' E 014°34'510.5
2017-Jun-17 15:30N 68°11' E 014°22'611.1
2017-Jun-17 15:00N 68°08' E 014°09'611.3
2017-Jun-17 14:30N 68°07' E 013°54'2 1.5
2017-Jun-17 13:29N 68°07' E 013°50'510.1
2017-Jun-17 13:00N 68°04' E 013°39'4 8.2
2017-Jun-17 12:30N 68°08' E 013°34'1 1.8
2017-Jun-17 12:00N 68°08' E 013°37'0 0.0
2017-Jun-17 11:29N 68°08' E 013°37'3 6.3
2017-Jun-17 11:00N 68°05' E 013°36'611.3
2017-Jun-17 10:30N 67°60' E 013°42'610.9
2017-Jun-17 09:59N 67°55' E 013°49'511.2
2017-Jun-17 09:30N 67°50' E 013°55'611.4
2017-Jun-17 09:00N 67°45' E 014°02'611.2
2017-Jun-17 08:30N 67°40' E 014°09'611.3
2017-Jun-17 08:00N 67°35' E 014°15'611.3
2017-Jun-17 07:30N 67°30' E 014°22'510.8
2017-Jun-17 07:00N 67°25' E 014°27'611.4
2017-Jun-17 06:30N 67°20' E 014°19'510.2
2017-Jun-17 06:00N 67°15' E 014°14'510.9
2017-Jun-17 05:30N 67°15' E 014°28'5 9.1
2017-Jun-17 05:00N 67°13' E 014°40'4 7.1
2017-Jun-17 04:30N 67°15' E 014°48'3 6.3
2017-Jun-17 04:00N 67°16' E 014°56'3 6.8
2017-Jun-17 03:30N 67°15' E 015°05'3 6.7
2017-Jun-17 03:00N 67°14' E 015°13'3 6.2
2017-Jun-17 02:29N 67°14' E 015°21'2 3.9
2017-Jun-17 02:00N 67°15' E 015°25'0 0.0
2017-Jun-17 01:30N 67°15' E 015°25'5 9.4
2017-Jun-17 00:59N 67°14' E 015°14'511.0
2017-Jun-17 00:30N 67°16' E 015°00'510.1
2017-Jun-17 00:00N 67°15' E 014°48'4 8.6
2017-Jun-16 23:30N 67°14' E 014°37'2 3.1
2017-Jun-16 23:00N 67°15' E 014°33'4 7.8
2017-Jun-16 22:30N 67°15' E 014°23'2 4.2
2017-Jun-16 22:00N 67°16' E 014°20'2 4.0
2017-Jun-16 21:30N 67°18' E 014°24'0 0.0
2017-Jun-16 21:00N 67°18' E 014°24'0 0.0
2017-Jun-16 20:30N 67°18' E 014°24'0 0.2
2017-Jun-16 20:00N 67°17' E 014°24'0 0.8
2017-Jun-16 19:30N 67°17' E 014°23'5 9.3
2017-Jun-16 19:00N 67°14' E 014°14'510.7
2017-Jun-16 18:30N 67°10' E 014°04'510.6
2017-Jun-16 18:00N 67°06' E 013°57'510.3
2017-Jun-16 17:30N 67°02' E 013°48'510.6
2017-Jun-16 17:00N 66°59' E 013°36'5 9.3
2017-Jun-16 16:30N 66°55' E 013°29'510.3
2017-Jun-16 16:00N 66°52' E 013°20'4 8.2
2017-Jun-16 15:30N 66°48' E 013°14'3 6.5
2017-Jun-16 15:00N 66°45' E 013°14'6 6.2
2017-Jun-16 14:00N 66°45' E 013°30'0 0.0
2017-Jun-16 13:30N 66°45' E 013°30'0 0.0
2017-Jun-16 13:00N 66°45' E 013°30'0 0.0
2017-Jun-16 12:30N 66°45' E 013°30'3 6.0
2017-Jun-16 12:00N 66°45' E 013°22'4 9.1
2017-Jun-16 11:30N 66°42' E 013°12'1 1.9
2017-Jun-16 11:00N 66°42' E 013°14'511.1
2017-Jun-16 10:30N 66°37' E 013°05'510.0
2017-Jun-16 10:00N 66°33' E 012°60'510.7
2017-Jun-16 09:30N 66°29' E 012°50'611.1
2017-Jun-16 09:00N 66°24' E 012°47'1 2.6
2017-Jun-16 08:30N 66°24' E 012°50'2 4.6
2017-Jun-16 08:00N 66°23' E 012°44'610.9
2017-Jun-16 07:30N 66°18' E 012°40'612.0
2017-Jun-16 07:00N 66°12' E 012°39'611.7
2017-Jun-16 06:30N 66°06' E 012°40'5 9.1
2017-Jun-16 06:00N 66°01' E 012°39'0 0.0
2017-Jun-16 05:30N 66°01' E 012°39'2 3.6
2017-Jun-16 05:00N 66°02' E 012°34'510.7
2017-Jun-16 04:30N 66°01' E 012°21'3 5.2
2017-Jun-16 04:00N 66°00' E 012°15'5 9.5
2017-Jun-16 03:30N 65°56' E 012°11'511.1
2017-Jun-16 03:00N 65°50' E 012°11'611.4
2017-Jun-16 02:30N 65°44' E 012°11'611.3
2017-Jun-16 02:00N 65°39' E 012°12'611.3
2017-Jun-16 01:30N 65°33' E 012°12'510.2
2017-Jun-16 01:00N 65°28' E 012°11'511.0
2017-Jun-16 00:30N 65°23' E 012°06'611.3
2017-Jun-16 00:00N 65°18' E 011°60'611.2
2017-Jun-15 23:30N 65°13' E 011°54'611.2
2017-Jun-15 22:59N 65°08' E 011°49'611.5
2017-Jun-15 22:30N 65°03' E 011°43'510.9
2017-Jun-15 22:00N 64°59' E 011°35'611.3
2017-Jun-15 21:30N 64°55' E 011°24'5 9.5
2017-Jun-15 21:00N 64°52' E 011°17'0 0.1
2017-Jun-15 20:30N 64°52' E 011°17'5 9.3
2017-Jun-15 20:00N 64°49' E 011°08'5 9.9
2017-Jun-15 19:30N 64°44' E 011°06'611.1
2017-Jun-15 19:00N 64°38' E 011°09'510.8
2017-Jun-15 18:30N 64°35' E 011°19'510.6
2017-Jun-15 18:00N 64°31' E 011°27'4 7.7
2017-Jun-15 17:30N 64°27' E 011°29'0 1.0
2017-Jun-15 17:00N 64°28' E 011°30'0 0.0
2017-Jun-15 16:30N 64°28' E 011°30'0 0.0
2017-Jun-15 15:59N 64°28' E 011°30'0 0.0
2017-Jun-15 15:30N 64°28' E 011°30'0 0.0
2017-Jun-15 15:00N 64°28' E 011°30'0 0.0
2017-Jun-15 14:00N 64°28' E 011°30'0 0.0
2017-Jun-15 13:29N 64°28' E 011°30'0 0.0
2017-Jun-15 12:59N 64°28' E 011°30'0 0.0
2017-Jun-15 12:29N 64°28' E 011°30'0 0.0
2017-Jun-15 12:00N 64°28' E 011°30'0 0.0
2017-Jun-15 11:29N 64°28' E 011°30'0 0.0
2017-Jun-15 11:00N 64°28' E 011°30'0 0.0
2017-Jun-15 10:30N 64°28' E 011°30'0 0.0
2017-Jun-15 09:59N 64°28' E 011°30'0 0.0
2017-Jun-15 09:30N 64°28' E 011°30'0 0.0
2017-Jun-15 09:00N 64°28' E 011°30'0 0.0
2017-Jun-15 08:30N 64°28' E 011°30'0 0.0
2017-Jun-15 08:00N 64°28' E 011°30'0 0.0
2017-Jun-15 07:30N 64°28' E 011°30'0 0.0
2017-Jun-15 06:59N 64°28' E 011°30'0 0.0
2017-Jun-15 06:30N 64°28' E 011°30'0 0.0
2017-Jun-15 06:00N 64°28' E 011°30'0 0.0
2017-Jun-15 05:29N 64°28' E 011°30'0 0.0
2017-Jun-15 04:59N 64°28' E 011°30'0 0.0
2017-Jun-15 04:30N 64°28' E 011°30'0 0.0
2017-Jun-15 04:00N 64°28' E 011°30'0 0.0
2017-Jun-15 03:30N 64°28' E 011°30'0 0.0
2017-Jun-15 03:00N 64°28' E 011°30'0 0.0
2017-Jun-15 02:30N 64°28' E 011°30'0 0.0
2017-Jun-15 01:59N 64°28' E 011°30'0 0.0
2017-Jun-15 01:30N 64°28' E 011°30'0 0.0
2017-Jun-15 01:00N 64°28' E 011°30'0 0.0
2017-Jun-15 00:30N 64°28' E 011°30'0 0.0
2017-Jun-15 00:00N 64°28' E 011°30'0 0.0
2017-Jun-14 23:30N 64°28' E 011°30'0 0.0
2017-Jun-14 23:00N 64°28' E 011°30'0 0.8
2017-Jun-14 22:30N 64°28' E 011°30'  
Track history (hours):
 
Tides and Currents Weather Stations Pressure Air Temp Water Temp Dewpoint Dewpoint Depression Visibility Wind Speed Wind Dir Waves Ship Positions

Ms Folla 2

Last reported at 2017-Jun-24 22:30 UTC. Time now 2017-Jun-24 22:33 UTC.
Position N 68°12' E 014°31'.

Length 52 m; draft 5.5 m.

Type: Ship. MMSI: 258253000.

Date/timePositionNaut miles runAvg speedWind from/ knotsBaromVisibWave heightAir tempDewpointWater temp
2017-Jun-24 22:30N 68°12' E 014°31'510.9
2017-Jun-24 22:00N 68°10' E 014°18'510.9
2017-Jun-24 21:30N 68°07' E 014°05'510.6
2017-Jun-24 21:00N 68°05' E 013°52'510.6
2017-Jun-24 20:30N 68°04' E 013°38'4 8.2
2017-Jun-24 20:00N 68°08' E 013°37'0 0.0
2017-Jun-24 19:30N 68°08' E 013°37'1 1.9
2017-Jun-24 19:00N 68°08' E 013°34'4 7.2
2017-Jun-24 18:30N 68°04' E 013°36'511.0
2017-Jun-24 18:00N 67°59' E 013°43'611.2
2017-Jun-24 17:30N 67°54' E 013°49'510.9
2017-Jun-24 17:00N 67°49' E 013°56'611.0
2017-Jun-24 16:30N 67°44' E 014°02'611.3
2017-Jun-24 16:00N 67°39' E 014°09'511.1
2017-Jun-24 15:30N 67°34' E 014°15'611.3
2017-Jun-24 15:00N 67°29' E 014°22'1110.6
2017-Jun-24 14:00N 67°19' E 014°23'1 2.4
2017-Jun-24 13:30N 67°18' E 014°24'2 3.4
2017-Jun-24 13:00N 67°16' E 014°21'0 0.0
2017-Jun-24 12:30N 67°16' E 014°21'5 9.6
2017-Jun-24 12:00N 67°14' E 014°10'611.2
2017-Jun-24 11:30N 67°12' E 013°57'5 9.1
2017-Jun-24 11:00N 67°10' E 013°46'1 2.0
2017-Jun-24 10:31N 67°09' E 013°46'5 9.8
2017-Jun-24 10:00N 67°06' E 013°56'511.0
2017-Jun-24 09:30N 67°02' E 013°47'610.9
2017-Jun-24 09:00N 66°59' E 013°35'5 9.5
2017-Jun-24 08:30N 66°54' E 013°31'5 9.8
2017-Jun-24 08:00N 66°49' E 013°33'3 5.6
2017-Jun-24 07:30N 66°48' E 013°27'510.3
2017-Jun-24 07:00N 66°45' E 013°15'3 6.1
2017-Jun-24 06:30N 66°43' E 013°17'0 0.2
2017-Jun-24 06:00N 66°43' E 013°17'0 0.0
2017-Jun-24 05:30N 66°43' E 013°17'3 5.4
2017-Jun-24 05:00N 66°41' E 013°11'510.7
2017-Jun-24 04:30N 66°36' E 013°05'5 8.9
2017-Jun-24 04:00N 66°32' E 012°59'5 9.4
2017-Jun-24 03:30N 66°29' E 012°50'510.7
2017-Jun-24 03:00N 66°24' E 012°46'2 3.3
2017-Jun-24 02:30N 66°24' E 012°50'5 9.7
2017-Jun-24 02:00N 66°23' E 012°38'1 2.6
2017-Jun-24 01:30N 66°22' E 012°35'2 4.2
2017-Jun-24 01:00N 66°23' E 012°41'510.4
2017-Jun-24 00:30N 66°18' E 012°40'611.6
2017-Jun-24 00:00N 66°12' E 012°40'611.6
2017-Jun-23 23:30N 66°06' E 012°40'5 9.2
2017-Jun-23 23:00N 66°01' E 012°39'5 9.1
2017-Jun-23 22:30N 65°59' E 012°29'611.4
2017-Jun-23 22:00N 65°54' E 012°22'611.3
2017-Jun-23 21:30N 65°48' E 012°21'5 9.5
2017-Jun-23 21:00N 65°44' E 012°23'3 5.3
2017-Jun-23 20:30N 65°41' E 012°25'611.1
2017-Jun-23 19:59N 65°36' E 012°18'511.0
2017-Jun-23 19:30N 65°31' E 012°12'4 8.0
2017-Jun-23 19:00N 65°27' E 012°11'511.0
2017-Jun-23 18:30N 65°23' E 012°05'611.2
2017-Jun-23 18:00N 65°18' E 011°59'510.9
2017-Jun-23 17:30N 65°13' E 011°53'510.7
2017-Jun-23 17:00N 65°08' E 011°49'611.2
2017-Jun-23 16:30N 65°03' E 011°43'510.3
2017-Jun-23 16:00N 64°59' E 011°35'510.7
2017-Jun-23 15:30N 64°56' E 011°25'510.5
2017-Jun-23 15:00N 64°52' E 011°16'8 8.1
2017-Jun-23 14:00N 64°45' E 011°06'510.7
2017-Jun-23 13:30N 64°40' E 011°08'510.4
2017-Jun-23 13:00N 64°36' E 011°17'510.9
2017-Jun-23 12:30N 64°32' E 011°26'5 9.7
2017-Jun-23 12:00N 64°27' E 011°26'2 3.8
2017-Jun-23 11:30N 64°28' E 011°30'0 0.0
2017-Jun-23 11:00N 64°28' E 011°30'0 0.0
2017-Jun-23 10:29N 64°28' E 011°30'0 0.0
2017-Jun-23 10:00N 64°28' E 011°30'0 0.0
2017-Jun-23 09:30N 64°28' E 011°30'0 0.0
2017-Jun-23 09:00N 64°28' E 011°30'0 0.0
2017-Jun-23 08:30N 64°28' E 011°30'0 0.0
2017-Jun-23 08:00N 64°28' E 011°30'0 0.0
2017-Jun-23 07:30N 64°28' E 011°30'0 0.0
2017-Jun-23 07:00N 64°28' E 011°30'0 0.0
2017-Jun-23 06:30N 64°28' E 011°30'0 0.0
2017-Jun-23 06:00N 64°28' E 011°30'0 0.0
2017-Jun-23 05:30N 64°28' E 011°30'0 0.0
2017-Jun-23 05:00N 64°28' E 011°30'0 0.0
2017-Jun-23 04:29N 64°28' E 011°30'1 1.6
2017-Jun-23 04:00N 64°27' E 011°29'510.1
2017-Jun-23 03:30N 64°29' E 011°18'510.0
2017-Jun-23 03:00N 64°32' E 011°08'510.0
2017-Jun-23 02:30N 64°36' E 011°01'5 9.8
2017-Jun-23 02:00N 64°37' E 010°50'510.8
2017-Jun-23 01:30N 64°34' E 010°40'611.1
2017-Jun-23 01:00N 64°29' E 010°32'510.6
2017-Jun-23 00:30N 64°25' E 010°26'611.3
2017-Jun-23 00:00N 64°20' E 010°21'610.5
2017-Jun-22 23:29N 64°14' E 010°16'511.2
2017-Jun-22 23:01N 64°10' E 010°09'611.2
2017-Jun-22 22:30N 64°06' E 010°01'5 9.2
2017-Jun-22 22:00N 64°01' E 009°60'610.9
2017-Jun-22 21:30N 63°57' E 009°51'611.1
2017-Jun-22 20:59N 63°53' E 009°43'511.2
2017-Jun-22 20:30N 63°49' E 009°35'611.2
2017-Jun-22 20:00N 63°43' E 009°32'510.4
2017-Jun-22 19:30N 63°38' E 009°29'510.3
2017-Jun-22 19:00N 63°39' E 009°41'5 9.5
2017-Jun-22 18:30N 63°36' E 009°49'612.0
2017-Jun-22 18:00N 63°30' E 009°55'612.0
2017-Jun-22 17:30N 63°29' E 010°08'611.7
2017-Jun-22 17:00N 63°28' E 010°21'3 5.0
2017-Jun-22 16:30N 63°27' E 010°25'0 0.0
2017-Jun-22 16:00N 63°27' E 010°25'0 0.0
2017-Jun-22 15:31N 63°27' E 010°25'0 0.0
2017-Jun-22 15:00N 63°27' E 010°25'0 0.0
2017-Jun-22 14:30N 63°27' E 010°25'4 3.9
2017-Jun-22 13:30N 63°28' E 010°17'611.2
2017-Jun-22 13:00N 63°28' E 010°05'5 9.9
2017-Jun-22 12:30N 63°30' E 009°54'510.1
2017-Jun-22 12:00N 63°35' E 009°49'5 9.6
2017-Jun-22 11:30N 63°39' E 009°44'510.8
2017-Jun-22 11:00N 63°38' E 009°32'4 8.2
2017-Jun-22 10:30N 63°42' E 009°30'611.5
2017-Jun-22 10:00N 63°47' E 009°34'611.3
2017-Jun-22 09:30N 63°52' E 009°41'610.8
2017-Jun-22 08:59N 63°57' E 009°47'511.1
2017-Jun-22 08:30N 64°02' E 009°48'611.3
2017-Jun-22 08:00N 64°06' E 009°58'611.2
2017-Jun-22 07:30N 64°10' E 010°07'611.4
2017-Jun-22 07:00N 64°14' E 010°15'510.3
2017-Jun-22 06:30N 64°19' E 010°20'611.2
2017-Jun-22 06:00N 64°24' E 010°26'510.5
2017-Jun-22 05:30N 64°29' E 010°31'611.3
2017-Jun-22 05:00N 64°33' E 010°39'5 9.7
2017-Jun-22 04:30N 64°33' E 010°50'1 2.5
2017-Jun-22 04:00N 64°32' E 010°52'0 0.0
2017-Jun-22 03:30N 64°32' E 010°52'0 0.0
2017-Jun-22 03:00N 64°32' E 010°52'0 0.0
2017-Jun-22 02:30N 64°32' E 010°52'0 0.0
2017-Jun-22 02:00N 64°32' E 010°52'4 8.9
2017-Jun-22 01:30N 64°37' E 010°51'510.6
2017-Jun-22 01:00N 64°42' E 010°55'611.1
2017-Jun-22 00:30N 64°46' E 011°03'611.3
2017-Jun-22 00:00N 64°50' E 011°12'2 3.5
2017-Jun-21 23:30N 64°52' E 011°15'1 1.9
2017-Jun-21 23:00N 64°51' E 011°17'0 0.0
2017-Jun-21 22:30N 64°51' E 011°17'0 0.0
2017-Jun-21 22:00N 64°51' E 011°17'0 0.0
2017-Jun-21 21:30N 64°51' E 011°17'0 0.0
2017-Jun-21 21:00N 64°51' E 011°17'0 0.0
2017-Jun-21 20:30N 64°51' E 011°17'2 4.9
2017-Jun-21 20:00N 64°54' E 011°20'510.3
2017-Jun-21 19:30N 64°57' E 011°29'510.7
2017-Jun-21 19:00N 65°00' E 011°38'510.0
2017-Jun-21 18:30N 65°04' E 011°46'510.9
2017-Jun-21 18:00N 65°10' E 011°50'610.9
2017-Jun-21 17:30N 65°15' E 011°55'510.6
2017-Jun-21 17:00N 65°19' E 012°01'511.1
2017-Jun-21 16:30N 65°24' E 012°07'5 9.8
2017-Jun-21 15:59N 65°29' E 012°13'510.7
2017-Jun-21 15:30N 65°34' E 012°14'611.1
2017-Jun-21 15:00N 65°39' E 012°16'1211.6
2017-Jun-21 14:00N 65°51' E 012°22'611.2
2017-Jun-21 13:29N 65°56' E 012°24'5 4.6
2017-Jun-21 12:27N 66°00' E 012°18'4 8.1
2017-Jun-21 11:58N 65°58' E 012°10'1 2.4
2017-Jun-21 11:23N 65°58' E 012°06'410.7
2017-Jun-21 11:00N 66°02' E 012°08'3 5.7
2017-Jun-21 10:30N 66°05' E 012°12'2 3.5
2017-Jun-21 09:59N 66°06' E 012°15'510.1
2017-Jun-21 09:30N 66°09' E 012°25'510.3
2017-Jun-21 09:00N 66°14' E 012°30'510.2
2017-Jun-21 08:29N 66°18' E 012°39'510.5
2017-Jun-21 08:01N 66°22' E 012°42'3 6.4
2017-Jun-21 07:30N 66°23' E 012°34'0 0.0
2017-Jun-21 07:00N 66°23' E 012°34'0 0.1
2017-Jun-21 06:31N 66°23' E 012°34'4 8.9
2017-Jun-21 06:00N 66°26' E 012°41'610.6
2017-Jun-21 05:29N 66°30' E 012°50'710.6
2017-Jun-21 04:52N 66°34' E 013°04'510.6
2017-Jun-21 04:26N 66°38' E 013°06'510.6
2017-Jun-21 03:59N 66°43' E 013°10'13 4.4
2017-Jun-21 01:10N 66°51' E 013°34'311.0
2017-Jun-21 00:56N 66°54' E 013°32'4 9.8
2017-Jun-21 00:30N 66°58' E 013°30'510.9
2017-Jun-21 00:00N 67°01' E 013°42'510.8
2017-Jun-20 23:30N 67°04' E 013°53'1 2.4
2017-Jun-20 23:00N 67°05' E 013°51'0 0.0
2017-Jun-20 22:30N 67°05' E 013°51'0 0.1
2017-Jun-20 22:00N 67°05' E 013°51'3 6.3
2017-Jun-20 21:30N 67°08' E 013°53'510.8
2017-Jun-20 21:00N 67°13' E 013°51'510.6
2017-Jun-20 20:30N 67°18' E 013°49'610.7
2017-Jun-20 19:59N 67°24' E 013°47'41 6.2
2017-Jun-20 13:27N 68°04' E 013°36'810.3
2017-Jun-20 12:38N 68°05' E 013°59'4010.4
2017-Jun-20 08:44N 68°18' E 015°42'35 9.7
2017-Jun-20 05:08N 68°44' E 016°45'210.7
2017-Jun-20 04:58N 68°46' E 016°48'2310.3
2017-Jun-20 02:46N 69°05' E 017°23'310.8
2017-Jun-20 02:30N 69°06' E 017°30'510.7
2017-Jun-20 02:00N 69°08' E 017°44'510.6
2017-Jun-20 01:30N 69°10' E 017°57'4 8.8
2017-Jun-20 01:00N 69°15' E 017°58'10310.1
2017-Jun-19 14:45N 70°24' E 021°41'310.6
2017-Jun-19 14:30N 70°23' E 021°49'1111.0
2017-Jun-19 13:30N 70°17' E 022°17'3 6.6
2017-Jun-19 13:00N 70°14' E 022°21'0 0.0
2017-Jun-19 12:30N 70°14' E 022°21'0 0.0
2017-Jun-19 12:00N 70°14' E 022°21'0 0.0
2017-Jun-19 11:30N 70°14' E 022°21'0 0.0
2017-Jun-19 11:00N 70°14' E 022°21'0 0.0
2017-Jun-19 10:30N 70°14' E 022°21'0 0.0
2017-Jun-19 10:00N 70°14' E 022°21'0 0.0
2017-Jun-19 09:30N 70°14' E 022°21'0 0.0
2017-Jun-19 09:00N 70°14' E 022°21'0 0.0
2017-Jun-19 08:30N 70°14' E 022°21'0 0.0
2017-Jun-19 08:00N 70°14' E 022°21'0 0.0
2017-Jun-19 07:30N 70°14' E 022°21'0 0.0
2017-Jun-19 07:00N 70°14' E 022°21'0 0.0
2017-Jun-19 06:30N 70°14' E 022°21'0 0.0
2017-Jun-19 06:00N 70°14' E 022°21'0 0.0
2017-Jun-19 05:30N 70°14' E 022°21'4 9.0
2017-Jun-19 05:00N 70°18' E 022°13'612.0
2017-Jun-19 04:30N 70°21' E 021°58'611.8
2017-Jun-19 04:00N 70°24' E 021°43'612.1
2017-Jun-19 03:30N 70°20' E 021°29'612.1
2017-Jun-19 03:00N 70°16' E 021°16'611.9
2017-Jun-19 02:30N 70°11' E 021°05'611.8
2017-Jun-19 01:59N 70°06' E 020°56'611.7
2017-Jun-19 01:30N 70°02' E 020°43'611.8
2017-Jun-19 01:00N 70°00' E 020°27'612.1
2017-Jun-19 00:30N 69°58' E 020°11'612.1
2017-Jun-19 00:00N 69°54' E 019°56'612.0
2017-Jun-18 23:30N 69°51' E 019°43'612.0
2017-Jun-18 22:59N 69°48' E 019°26'611.9
2017-Jun-18 22:30N 69°46' E 019°11'611.8
2017-Jun-18 22:00N 69°41' E 019°01'1 1.6
2017-Jun-18 21:29N 69°41' E 018°59'0 0.4
2017-Jun-18 21:00N 69°41' E 018°59'3 7.1
2017-Jun-18 20:30N 69°37' E 018°56'611.5
2017-Jun-18 20:00N 69°33' E 018°44'611.5
2017-Jun-18 19:30N 69°31' E 018°28'611.7
2017-Jun-18 19:00N 69°29' E 018°13'610.9
2017-Jun-18 18:30N 69°24' E 018°06'611.2
2017-Jun-18 18:00N 69°19' E 017°60'5 9.9
2017-Jun-18 17:30N 69°14' E 017°58'0 0.0
2017-Jun-18 17:01N 69°14' E 017°58'1 1.1
2017-Jun-18 16:31N 69°14' E 017°58'3 5.1
2017-Jun-18 16:00N 69°11' E 018°01'611.7
2017-Jun-18 15:30N 69°08' E 017°47'611.4
2017-Jun-18 15:00N 69°05' E 017°35'1211.5
2017-Jun-18 14:00N 68°53' E 017°27'1 1.5
2017-Jun-18 13:30N 68°54' E 017°29'0 0.1
2017-Jun-18 13:00N 68°54' E 017°29'5 9.7
2017-Jun-18 12:30N 68°54' E 017°42'1 2.1
2017-Jun-18 11:59N 68°54' E 017°39'611.7
2017-Jun-18 11:30N 68°51' E 017°27'611.4
2017-Jun-18 11:00N 68°47' E 017°15'611.4
2017-Jun-18 10:29N 68°44' E 017°01'611.2
2017-Jun-18 10:00N 68°43' E 016°46'0 0.7
2017-Jun-18 09:30N 68°43' E 016°46'2 4.2
2017-Jun-18 09:00N 68°45' E 016°42'3 6.3
2017-Jun-18 08:30N 68°47' E 016°36'1 2.5
2017-Jun-18 08:00N 68°48' E 016°33'0 0.0
2017-Jun-18 07:30N 68°48' E 016°33'0 0.0
2017-Jun-18 07:00N 68°48' E 016°33'0 0.5
2017-Jun-18 06:30N 68°48' E 016°33'5 9.3
2017-Jun-18 06:00N 68°52' E 016°39'0 0.9
2017-Jun-18 05:30N 68°52' E 016°40'0 0.0
2017-Jun-18 05:00N 68°52' E 016°40'2 4.2
2017-Jun-18 04:30N 68°52' E 016°35'4 7.9
2017-Jun-18 04:00N 68°53' E 016°24'4 7.6
2017-Jun-18 03:30N 68°55' E 016°15'5 9.4
2017-Jun-18 03:00N 68°51' E 016°07'4 8.4
2017-Jun-18 02:30N 68°47' E 016°08'1 1.9
2017-Jun-18 02:00N 68°46' E 016°10'3 6.2
2017-Jun-18 01:30N 68°49' E 016°05'5 9.8
2017-Jun-18 01:00N 68°53' E 016°01'510.0
2017-Jun-18 00:30N 68°58' E 015°56'5 9.1
2017-Jun-18 00:00N 68°59' E 015°43'2 3.7
2017-Jun-17 23:30N 68°58' E 015°38'4 8.2
2017-Jun-17 23:00N 68°54' E 015°34'511.1
2017-Jun-17 22:30N 68°49' E 015°27'611.2
2017-Jun-17 22:00N 68°44' E 015°26'2 3.7
2017-Jun-17 21:30N 68°42' E 015°25'0 0.0
2017-Jun-17 21:00N 68°42' E 015°25'0 0.1
2017-Jun-17 20:30N 68°42' E 015°25'5 9.4
2017-Jun-17 20:00N 68°38' E 015°19'611.4
2017-Jun-17 19:29N 68°33' E 015°10'510.6
2017-Jun-17 19:00N 68°28' E 015°12'612.0
2017-Jun-17 18:30N 68°23' E 015°04'611.4
2017-Jun-17 18:00N 68°17' E 014°58'510.3
2017-Jun-17 17:30N 68°13' E 014°50'510.7
2017-Jun-17 16:59N 68°13' E 014°35'1 1.7
2017-Jun-17 16:30N 68°14' E 014°35'1 1.8
2017-Jun-17 16:00N 68°13' E 014°34'510.5
2017-Jun-17 15:30N 68°11' E 014°22'611.1
2017-Jun-17 15:00N 68°08' E 014°09'611.3
2017-Jun-17 14:30N 68°07' E 013°54'2 1.5
2017-Jun-17 13:29N 68°07' E 013°50'510.1
2017-Jun-17 13:00N 68°04' E 013°39'4 8.2
2017-Jun-17 12:30N 68°08' E 013°34'1 1.8
2017-Jun-17 12:00N 68°08' E 013°37'0 0.0
2017-Jun-17 11:29N 68°08' E 013°37'3 6.3
2017-Jun-17 11:00N 68°05' E 013°36'611.3
2017-Jun-17 10:30N 67°60' E 013°42'610.9
2017-Jun-17 09:59N 67°55' E 013°49'511.2
2017-Jun-17 09:30N 67°50' E 013°55'611.4
2017-Jun-17 09:00N 67°45' E 014°02'611.2
2017-Jun-17 08:30N 67°40' E 014°09'611.3
2017-Jun-17 08:00N 67°35' E 014°15'611.3
2017-Jun-17 07:30N 67°30' E 014°22'510.8
2017-Jun-17 07:00N 67°25' E 014°27'611.4
2017-Jun-17 06:30N 67°20' E 014°19'510.2
2017-Jun-17 06:00N 67°15' E 014°14'510.9
2017-Jun-17 05:30N 67°15' E 014°28'5 9.1
2017-Jun-17 05:00N 67°13' E 014°40'4 7.1
2017-Jun-17 04:30N 67°15' E 014°48'3 6.3
2017-Jun-17 04:00N 67°16' E 014°56'3 6.8
2017-Jun-17 03:30N 67°15' E 015°05'3 6.7
2017-Jun-17 03:00N 67°14' E 015°13'3 6.2
2017-Jun-17 02:29N 67°14' E 015°21'2 3.9
2017-Jun-17 02:00N 67°15' E 015°25'0 0.0
2017-Jun-17 01:30N 67°15' E 015°25'5 9.4
2017-Jun-17 00:59N 67°14' E 015°14'511.0
2017-Jun-17 00:30N 67°16' E 015°00'510.1
2017-Jun-17 00:00N 67°15' E 014°48'4 8.6
2017-Jun-16 23:30N 67°14' E 014°37'2 3.1
2017-Jun-16 23:00N 67°15' E 014°33'4 7.8
2017-Jun-16 22:30N 67°15' E 014°23'2 4.2
2017-Jun-16 22:00N 67°16' E 014°20'2 4.0
2017-Jun-16 21:30N 67°18' E 014°24'0 0.0
2017-Jun-16 21:00N 67°18' E 014°24'0 0.0
2017-Jun-16 20:30N 67°18' E 014°24'0 0.2
2017-Jun-16 20:00N 67°17' E 014°24'0 0.8
2017-Jun-16 19:30N 67°17' E 014°23'5 9.3
2017-Jun-16 19:00N 67°14' E 014°14'510.7
2017-Jun-16 18:30N 67°10' E 014°04'510.6
2017-Jun-16 18:00N 67°06' E 013°57'510.3
2017-Jun-16 17:30N 67°02' E 013°48'510.6
2017-Jun-16 17:00N 66°59' E 013°36'5 9.3
2017-Jun-16 16:30N 66°55' E 013°29'510.3
2017-Jun-16 16:00N 66°52' E 013°20'4 8.2
2017-Jun-16 15:30N 66°48' E 013°14'3 6.5
2017-Jun-16 15:00N 66°45' E 013°14'6 6.2
2017-Jun-16 14:00N 66°45' E 013°30'0 0.0
2017-Jun-16 13:30N 66°45' E 013°30'0 0.0
2017-Jun-16 13:00N 66°45' E 013°30'0 0.0
2017-Jun-16 12:30N 66°45' E 013°30'3 6.0
2017-Jun-16 12:00N 66°45' E 013°22'4 9.1
2017-Jun-16 11:30N 66°42' E 013°12'1 1.9
2017-Jun-16 11:00N 66°42' E 013°14'511.1
2017-Jun-16 10:30N 66°37' E 013°05'510.0
2017-Jun-16 10:00N 66°33' E 012°60'510.7
2017-Jun-16 09:30N 66°29' E 012°50'611.1
2017-Jun-16 09:00N 66°24' E 012°47'1 2.6
2017-Jun-16 08:30N 66°24' E 012°50'2 4.6
2017-Jun-16 08:00N 66°23' E 012°44'610.9
2017-Jun-16 07:30N 66°18' E 012°40'612.0
2017-Jun-16 07:00N 66°12' E 012°39'611.7
2017-Jun-16 06:30N 66°06' E 012°40'5 9.1
2017-Jun-16 06:00N 66°01' E 012°39'0 0.0
2017-Jun-16 05:30N 66°01' E 012°39'2 3.6
2017-Jun-16 05:00N 66°02' E 012°34'510.7
2017-Jun-16 04:30N 66°01' E 012°21'3 5.2
2017-Jun-16 04:00N 66°00' E 012°15'5 9.5
2017-Jun-16 03:30N 65°56' E 012°11'511.1
2017-Jun-16 03:00N 65°50' E 012°11'611.4
2017-Jun-16 02:30N 65°44' E 012°11'611.3
2017-Jun-16 02:00N 65°39' E 012°12'611.3
2017-Jun-16 01:30N 65°33' E 012°12'510.2
2017-Jun-16 01:00N 65°28' E 012°11'511.0
2017-Jun-16 00:30N 65°23' E 012°06'611.3
2017-Jun-16 00:00N 65°18' E 011°60'611.2
2017-Jun-15 23:30N 65°13' E 011°54'611.2
2017-Jun-15 22:59N 65°08' E 011°49'611.5
2017-Jun-15 22:30N 65°03' E 011°43'510.9
2017-Jun-15 22:00N 64°59' E 011°35'611.3
2017-Jun-15 21:30N 64°55' E 011°24'5 9.5
2017-Jun-15 21:00N 64°52' E 011°17'0 0.1
2017-Jun-15 20:30N 64°52' E 011°17'5 9.3
2017-Jun-15 20:00N 64°49' E 011°08'5 9.9
2017-Jun-15 19:30N 64°44' E 011°06'611.1
2017-Jun-15 19:00N 64°38' E 011°09'510.8
2017-Jun-15 18:30N 64°35' E 011°19'510.6
2017-Jun-15 18:00N 64°31' E 011°27'4 7.7
2017-Jun-15 17:30N 64°27' E 011°29'0 1.0
2017-Jun-15 17:00N 64°28' E 011°30'0 0.0
2017-Jun-15 16:30N 64°28' E 011°30'0 0.0
2017-Jun-15 15:59N 64°28' E 011°30'0 0.0
2017-Jun-15 15:30N 64°28' E 011°30'0 0.0
2017-Jun-15 15:00N 64°28' E 011°30'0 0.0
2017-Jun-15 14:00N 64°28' E 011°30'0 0.0
2017-Jun-15 13:29N 64°28' E 011°30'0 0.0
2017-Jun-15 12:59N 64°28' E 011°30'0 0.0
2017-Jun-15 12:29N 64°28' E 011°30'0 0.0
2017-Jun-15 12:00N 64°28' E 011°30'0 0.0
2017-Jun-15 11:29N 64°28' E 011°30'0 0.0
2017-Jun-15 11:00N 64°28' E 011°30'0 0.0
2017-Jun-15 10:30N 64°28' E 011°30'0 0.0
2017-Jun-15 09:59N 64°28' E 011°30'0 0.0
2017-Jun-15 09:30N 64°28' E 011°30'0 0.0
2017-Jun-15 09:00N 64°28' E 011°30'0 0.0
2017-Jun-15 08:30N 64°28' E 011°30'0 0.0
2017-Jun-15 08:00N 64°28' E 011°30'0 0.0
2017-Jun-15 07:30N 64°28' E 011°30'0 0.0
2017-Jun-15 06:59N 64°28' E 011°30'0 0.0
2017-Jun-15 06:30N 64°28' E 011°30'0 0.0
2017-Jun-15 06:00N 64°28' E 011°30'0 0.0
2017-Jun-15 05:29N 64°28' E 011°30'0 0.0
2017-Jun-15 04:59N 64°28' E 011°30'0 0.0
2017-Jun-15 04:30N 64°28' E 011°30'0 0.0
2017-Jun-15 04:00N 64°28' E 011°30'0 0.0
2017-Jun-15 03:30N 64°28' E 011°30'0 0.0
2017-Jun-15 03:00N 64°28' E 011°30'0 0.0
2017-Jun-15 02:30N 64°28' E 011°30'0 0.0
2017-Jun-15 01:59N 64°28' E 011°30'0 0.0
2017-Jun-15 01:30N 64°28' E 011°30'0 0.0
2017-Jun-15 01:00N 64°28' E 011°30'0 0.0
2017-Jun-15 00:30N 64°28' E 011°30'0 0.0
2017-Jun-15 00:00N 64°28' E 011°30'0 0.0
2017-Jun-14 23:30N 64°28' E 011°30'0 0.0
2017-Jun-14 23:00N 64°28' E 011°30'0 0.8
2017-Jun-14 22:30N 64°28' E 011°30'  

Dump ship's entire track history